createdAt,value
2022-08-09T00:00:00.589Z,5.07
2022-08-09T00:02:31.611Z,4.85
2022-08-09T00:05:03.480Z,5.00
2022-08-09T00:07:45.444Z,4.88
2022-08-09T00:10:18.267Z,4.90
2022-08-09T00:12:52.330Z,4.88
2022-08-09T00:15:26.538Z,5.20
2022-08-09T00:18:12.023Z,4.22
2022-08-09T00:20:42.626Z,4.65
2022-08-09T00:23:58.345Z,4.28
2022-08-09T00:26:06.349Z,5.05
2022-08-09T00:28:34.517Z,5.15
2022-08-09T00:31:09.164Z,4.88
2022-08-09T00:33:51.904Z,4.85
2022-08-09T00:36:19.994Z,5.68
2022-08-09T00:38:46.766Z,3.95
2022-08-09T00:44:11.595Z,3.88
2022-08-09T00:44:15.995Z,5.00
2022-08-09T00:46:56.892Z,4.30
2022-08-09T00:49:28.537Z,5.10
2022-08-09T00:52:05.004Z,4.88
2022-08-09T00:54:36.216Z,5.15
2022-08-09T00:57:10.436Z,4.65
2022-08-09T00:59:47.005Z,4.40
2022-08-09T01:05:13.990Z,4.00
2022-08-09T01:08:00.745Z,4.38
2022-08-09T01:10:53.396Z,4.68
2022-08-09T01:13:41.894Z,5.72
2022-08-09T01:16:24.787Z,4.82
2022-08-09T01:19:02.640Z,4.90
2022-08-09T01:21:53.765Z,4.00
2022-08-09T01:24:50.389Z,4.80
2022-08-09T01:27:21.683Z,4.90
2022-08-09T01:29:56.699Z,4.72
2022-08-09T01:32:45.930Z,4.65
2022-08-09T01:35:37.346Z,4.78
2022-08-09T01:38:15.124Z,4.68
2022-08-09T01:40:52.740Z,4.72
2022-08-09T01:43:31.949Z,4.45
2022-08-09T01:46:11.266Z,5.10
2022-08-09T01:48:48.339Z,4.90
2022-08-09T01:51:22.539Z,5.03
2022-08-09T01:53:53.766Z,4.72
2022-08-09T01:56:26.433Z,5.03
2022-08-09T01:58:55.466Z,4.93
2022-08-09T02:01:57.713Z,5.30
2022-08-09T02:04:12.656Z,4.78
2022-08-09T02:07:02.008Z,5.07
2022-08-09T02:09:41.874Z,5.30
2022-08-09T02:12:18.182Z,5.13
2022-08-09T02:14:52.311Z,5.07
2022-08-09T02:17:59.507Z,4.97
2022-08-09T02:20:25.059Z,5.03
2022-08-09T02:23:14.098Z,5.07
2022-08-09T02:25:49.592Z,4.95
2022-08-09T02:28:54.011Z,4.50
2022-08-09T02:31:27.157Z,4.38
2022-08-09T02:34:12.975Z,4.75
2022-08-09T02:36:44.871Z,4.55
2022-08-09T02:39:20.164Z,4.60
2022-08-09T02:42:05.632Z,4.43
2022-08-09T02:44:40.334Z,5.15
2022-08-09T02:47:11.939Z,4.45
2022-08-09T02:50:06.825Z,4.35
2022-08-09T02:52:57.824Z,4.32
2022-08-09T02:55:46.278Z,4.40
2022-08-09T02:58:36.040Z,4.15
2022-08-09T03:01:06.349Z,4.10
2022-08-09T03:04:12.252Z,4.38
2022-08-09T03:06:27.549Z,4.85
2022-08-09T03:08:55.613Z,4.90
2022-08-09T03:11:30.194Z,4.32
2022-08-09T03:14:12.892Z,4.47
2022-08-09T03:16:44.954Z,4.47
2022-08-09T03:19:14.033Z,4.72
2022-08-09T03:22:03.314Z,4.65
2022-08-09T03:24:42.246Z,4.70
2022-08-09T03:27:21.441Z,4.70
2022-08-09T03:29:57.826Z,4.90
2022-08-09T03:32:30.698Z,4.68
2022-08-09T03:34:59.472Z,4.82
2022-08-09T03:37:55.547Z,4.57
2022-08-09T03:40:18.088Z,4.18
2022-08-09T03:42:45.871Z,4.50
2022-08-09T03:45:13.715Z,4.45
2022-08-09T03:47:46.479Z,4.20
2022-08-09T03:52:42.538Z,4.88
2022-08-09T03:55:14.490Z,4.65
2022-08-09T03:57:44.718Z,3.85
2022-08-09T04:00:30.436Z,4.20
2022-08-09T04:02:59.065Z,4.10
2022-08-09T04:05:28.244Z,4.43
2022-08-09T04:07:57.157Z,4.82
2022-08-09T04:10:29.353Z,4.30
2022-08-09T04:13:01.392Z,4.28
2022-08-09T04:16:18.756Z,4.15
2022-08-09T04:18:21.460Z,4.20
2022-08-09T04:20:49.839Z,4.55
2022-08-09T04:23:17.822Z,4.28
2022-08-09T04:25:52.080Z,3.88
2022-08-09T04:28:36.192Z,3.92
2022-08-09T04:31:09.259Z,4.00
2022-08-09T04:33:51.800Z,4.13
2022-08-09T04:36:24.968Z,4.55
2022-08-09T04:38:53.633Z,4.50
2022-08-09T04:41:23.732Z,4.35
2022-08-09T04:44:04.936Z,4.57
2022-08-09T04:46:37.781Z,4.47
2022-08-09T04:49:30.335Z,4.45
2022-08-09T04:52:09.755Z,4.15
2022-08-09T04:54:37.023Z,4.20
2022-08-09T04:57:04.246Z,4.30
2022-08-09T04:59:31.857Z,4.35
2022-08-09T05:01:58.726Z,4.75
2022-08-09T05:04:30.666Z,4.32
2022-08-09T05:06:57.719Z,4.25
2022-08-09T05:09:24.952Z,4.22
2022-08-09T05:12:09.782Z,3.80
2022-08-09T05:14:40.983Z,3.60
2022-08-09T05:18:39.940Z,3.42
2022-08-09T05:19:57.304Z,3.45
2022-08-09T05:22:36.223Z,3.10
2022-08-09T05:25:15.161Z,3.70
2022-08-09T05:27:46.437Z,3.40
2022-08-09T05:30:15.925Z,3.40
2022-08-09T05:32:50.844Z,3.47
2022-08-09T05:35:18.452Z,3.20
2022-08-09T05:37:50.100Z,3.00
2022-08-09T05:40:18.303Z,3.10
2022-08-09T05:42:45.541Z,3.90
2022-08-09T05:45:14.427Z,2.95
2022-08-09T05:47:51.527Z,3.30
2022-08-09T05:50:36.157Z,3.05
2022-08-09T05:53:11.734Z,2.88
2022-08-09T05:55:50.587Z,3.00
2022-08-09T05:58:18.334Z,2.92
2022-08-09T06:00:45.350Z,3.17
2022-08-09T06:03:13.331Z,2.63
2022-08-09T06:05:54.583Z,2.85
2022-08-09T06:08:25.188Z,3.17
2022-08-09T06:10:56.956Z,2.83
2022-08-09T06:13:25.629Z,2.90
2022-08-09T06:15:55.951Z,2.53
2022-08-09T06:18:23.936Z,3.40
2022-08-09T06:20:57.787Z,2.80
2022-08-09T06:23:58.416Z,2.83
2022-08-09T06:26:20.245Z,2.72
2022-08-09T06:28:59.620Z,2.35
2022-08-09T06:31:31.494Z,2.65
2022-08-09T06:34:07.643Z,3.00
2022-08-09T06:36:36.257Z,2.75
2022-08-09T06:39:09.174Z,3.05
2022-08-09T06:42:08.510Z,2.80
2022-08-09T06:44:26.620Z,3.05
2022-08-09T06:46:54.950Z,3.10
2022-08-09T06:49:44.613Z,3.22
2022-08-09T06:52:10.583Z,3.25
2022-08-09T06:54:39.052Z,2.80
2022-08-09T06:57:08.437Z,2.95
2022-08-09T07:00:49.824Z,2.63
2022-08-09T07:02:22.426Z,3.10
2022-08-09T07:04:57.792Z,3.08
2022-08-09T07:08:00.720Z,3.10
2022-08-09T07:10:29.700Z,3.33
2022-08-09T07:12:59.795Z,3.33
2022-08-09T07:16:35.381Z,3.35
2022-08-09T07:18:15.144Z,3.00
2022-08-09T07:20:43.400Z,3.10
2022-08-09T07:23:18.518Z,3.08
2022-08-09T07:25:47.789Z,2.83
2022-08-09T07:28:28.014Z,2.63
2022-08-09T07:30:55.464Z,2.50
2022-08-09T07:33:23.308Z,2.58
2022-08-09T07:35:54.080Z,2.55
2022-08-09T07:38:23.370Z,2.78
2022-08-09T07:41:11.193Z,3.05
2022-08-09T07:43:41.340Z,2.40
2022-08-09T07:46:19.259Z,2.90
2022-08-09T07:48:46.717Z,2.80
2022-08-09T07:52:06.169Z,2.65
2022-08-09T07:54:12.772Z,2.70
2022-08-09T07:56:48.971Z,2.60
2022-08-09T07:59:33.569Z,2.85
2022-08-09T08:02:06.028Z,2.70
2022-08-09T08:04:33.340Z,2.80
2022-08-09T08:07:09.573Z,2.70
2022-08-09T08:09:54.915Z,2.80
2022-08-09T08:12:32.550Z,2.78
2022-08-09T08:14:59.781Z,2.78
2022-08-09T08:17:52.572Z,2.35
2022-08-09T08:20:13.792Z,2.72
2022-08-09T08:22:41.072Z,2.83
2022-08-09T08:25:13.554Z,2.75
2022-08-09T08:27:43.092Z,2.90
2022-08-09T08:30:12.174Z,2.60
2022-08-09T08:32:52.734Z,2.90
2022-08-09T08:35:22.430Z,2.60
2022-08-09T08:38:04.905Z,2.80
2022-08-09T08:40:38.701Z,2.90
2022-08-09T08:43:08.966Z,2.78
2022-08-09T08:45:51.675Z,2.90
2022-08-09T08:48:32.475Z,2.97
2022-08-09T08:51:00.124Z,2.90
2022-08-09T08:53:32.110Z,3.38
2022-08-09T08:56:05.147Z,2.97
2022-08-09T08:58:33.536Z,2.50
2022-08-09T09:01:08.695Z,2.78
2022-08-09T09:03:50.420Z,2.90
2022-08-09T09:06:18.631Z,3.00
2022-08-09T09:08:52.489Z,3.10
2022-08-09T09:11:28.318Z,3.20
2022-08-09T09:13:58.637Z,2.97
2022-08-09T09:16:33.672Z,2.95
2022-08-09T09:19:36.990Z,3.00
2022-08-09T09:22:07.777Z,3.28
2022-08-09T09:24:43.167Z,3.00
2022-08-09T09:28:04.274Z,3.55
2022-08-09T09:30:26.279Z,3.08
2022-08-09T09:33:16.471Z,2.80
2022-08-09T09:36:00.695Z,2.60
2022-08-09T09:38:41.774Z,3.25
2022-08-09T09:41:10.780Z,2.85
2022-08-09T09:44:10.604Z,2.83
2022-08-09T09:46:42.864Z,2.97
2022-08-09T09:49:12.671Z,3.35
2022-08-09T09:51:41.593Z,3.00
2022-08-09T09:54:19.188Z,2.90
2022-08-09T09:58:00.895Z,3.50
2022-08-09T09:59:36.673Z,2.80
2022-08-09T10:02:03.772Z,3.17
2022-08-09T10:04:31.443Z,3.17
2022-08-09T10:06:58.807Z,3.05
2022-08-09T10:09:54.800Z,3.30
2022-08-09T10:12:34.248Z,3.15
2022-08-09T10:15:17.438Z,3.15
2022-08-09T10:17:56.533Z,2.85
2022-08-09T10:20:35.631Z,3.33
2022-08-09T10:23:20.509Z,3.13
2022-08-09T10:26:05.972Z,3.20
2022-08-09T10:28:37.546Z,3.45
2022-08-09T10:34:10.506Z,3.33
2022-08-09T10:36:42.406Z,3.45
2022-08-09T10:39:15.635Z,3.47
2022-08-09T10:41:45.904Z,3.25
2022-08-09T10:44:17.922Z,3.17
2022-08-09T10:47:00.981Z,3.37
2022-08-09T10:50:02.131Z,3.42
2022-08-09T10:52:32.900Z,4.25
2022-08-09T10:55:27.918Z,3.37
2022-08-09T10:57:59.902Z,3.45
2022-08-09T11:00:34.495Z,3.67
2022-08-09T11:03:18.554Z,3.35
2022-08-09T11:06:15.430Z,3.35
2022-08-09T11:08:47.854Z,3.65
2022-08-09T11:11:19.290Z,3.63
2022-08-09T11:13:51.217Z,3.45
2022-08-09T11:16:39.198Z,3.20
2022-08-09T11:19:10.131Z,3.10
2022-08-09T11:21:55.185Z,3.30
2022-08-09T11:24:57.768Z,3.50
2022-08-09T11:28:03.040Z,3.30
2022-08-09T11:30:32.901Z,3.67
2022-08-09T11:33:05.796Z,3.67
2022-08-09T11:35:49.048Z,3.45
2022-08-09T11:38:21.958Z,3.25
2022-08-09T11:40:52.936Z,3.38
2022-08-09T11:43:32.296Z,2.83
2022-08-09T11:46:01.393Z,3.60
2022-08-09T11:48:31.823Z,3.55
2022-08-09T11:52:48.496Z,3.80
2022-08-09T11:54:13.724Z,3.50
2022-08-09T11:56:42.300Z,3.15
2022-08-09T11:59:29.918Z,3.15
2022-08-09T12:02:34.370Z,3.53
2022-08-09T12:04:44.953Z,3.20
2022-08-09T12:07:12.130Z,3.30
2022-08-09T12:09:50.982Z,3.25
2022-08-09T12:12:28.838Z,3.17
2022-08-09T12:15:48.954Z,2.95
2022-08-09T12:18:30.310Z,3.38
2022-08-09T12:21:00.412Z,3.03
2022-08-09T12:23:58.799Z,2.90
2022-08-09T12:26:19.698Z,3.50
2022-08-09T12:29:15.410Z,3.20
2022-08-09T12:31:59.039Z,3.45
2022-08-09T12:34:38.084Z,3.22
2022-08-09T12:37:21.864Z,3.20
2022-08-09T12:40:10.051Z,3.47
2022-08-09T12:42:43.021Z,3.15
2022-08-09T12:45:33.976Z,3.00
2022-08-09T12:47:57.369Z,2.92
2022-08-09T12:50:25.033Z,3.35
2022-08-09T12:53:17.422Z,3.28
2022-08-09T12:56:12.495Z,3.08
2022-08-09T12:58:27.705Z,3.53
2022-08-09T13:00:56.236Z,3.20
2022-08-09T13:03:57.125Z,3.08
2022-08-09T13:06:35.582Z,3.22
2022-08-09T13:09:10.164Z,3.22
2022-08-09T13:11:43.106Z,3.15
2022-08-09T13:14:43.996Z,3.47
2022-08-09T13:17:21.863Z,3.50
2022-08-09T13:20:14.075Z,3.60
2022-08-09T13:23:01.156Z,3.10
2022-08-09T13:25:54.585Z,3.10
2022-08-09T13:28:24.408Z,3.30
2022-08-09T13:32:14.184Z,3.55
2022-08-09T13:33:54.797Z,3.10
2022-08-09T13:36:39.757Z,3.40
2022-08-09T13:41:19.374Z,3.13
2022-08-09T13:42:12.131Z,3.28
2022-08-09T13:44:42.099Z,3.13
2022-08-09T13:47:33.275Z,3.60
2022-08-09T13:50:07.814Z,3.10
2022-08-09T13:52:40.557Z,3.13
2022-08-09T13:55:13.834Z,3.60
2022-08-09T13:57:56.202Z,3.30
2022-08-09T14:00:28.378Z,3.30
2022-08-09T14:03:02.753Z,3.67
2022-08-09T14:05:56.957Z,3.60
2022-08-09T14:08:19.494Z,3.33
2022-08-09T14:10:52.432Z,3.30
2022-08-09T14:14:15.379Z,3.70
2022-08-09T14:16:15.055Z,3.03
2022-08-09T14:18:49.700Z,3.10
2022-08-09T14:21:22.338Z,3.42
2022-08-09T14:23:55.249Z,3.53
2022-08-09T14:26:33.569Z,3.40
2022-08-09T14:30:15.050Z,3.05
2022-08-09T14:32:04.589Z,2.97
2022-08-09T14:34:41.224Z,3.33
2022-08-09T14:37:08.748Z,3.20
2022-08-09T14:39:45.444Z,3.25
2022-08-09T14:42:30.878Z,3.05
2022-08-09T14:46:39.141Z,3.60
2022-08-09T14:47:57.926Z,3.25
2022-08-09T14:50:26.936Z,3.13
2022-08-09T14:52:53.917Z,3.47
2022-08-09T14:55:21.628Z,3.30
2022-08-09T14:57:49.413Z,3.30
2022-08-09T15:00:17.660Z,3.20
2022-08-09T15:02:47.489Z,3.10
2022-08-09T15:05:18.883Z,3.17
2022-08-09T15:07:54.705Z,3.40
2022-08-09T15:10:25.214Z,3.10
2022-08-09T15:12:53.552Z,3.25
2022-08-09T15:15:21.055Z,2.90
2022-08-09T15:17:52.570Z,3.30
2022-08-09T15:21:55.464Z,3.40
2022-08-09T15:24:01.125Z,3.42
2022-08-09T15:25:58.437Z,3.38
2022-08-09T15:28:27.830Z,3.15
2022-08-09T15:31:08.946Z,3.50
2022-08-09T15:34:17.633Z,3.38
2022-08-09T15:36:28.714Z,3.25
2022-08-09T15:38:58.728Z,3.08
2022-08-09T15:41:32.273Z,3.20
2022-08-09T15:44:02.888Z,3.63
2022-08-09T15:46:34.143Z,3.75
2022-08-09T15:49:20.453Z,2.90
2022-08-09T15:52:04.904Z,3.47
2022-08-09T15:54:44.355Z,3.40
2022-08-09T15:57:14.154Z,3.05
2022-08-09T15:59:51.543Z,3.22
2022-08-09T16:02:19.362Z,3.22
2022-08-09T16:04:54.203Z,3.42
2022-08-09T16:07:21.039Z,3.42
2022-08-09T16:09:57.579Z,2.92
2022-08-09T16:12:33.066Z,3.40
2022-08-09T16:15:01.696Z,3.25
2022-08-09T16:17:29.086Z,3.35
2022-08-09T16:20:04.432Z,3.38
2022-08-09T16:22:33.707Z,3.78
2022-08-09T16:25:01.702Z,3.08
2022-08-09T16:27:29.937Z,3.00
2022-08-09T16:30:00.906Z,2.88
2022-08-09T16:32:53.493Z,3.13
2022-08-09T16:35:57.388Z,3.40
2022-08-09T16:38:09.752Z,3.20
2022-08-09T16:40:40.686Z,2.97
2022-08-09T16:43:08.396Z,3.22
2022-08-09T16:45:43.777Z,3.03
2022-08-09T16:48:42.505Z,2.90
2022-08-09T16:51:08.514Z,3.08
2022-08-09T16:54:16.499Z,2.85
2022-08-09T16:56:33.326Z,3.30
2022-08-09T16:59:06.792Z,3.20
2022-08-09T17:01:38.744Z,3.10
2022-08-09T17:04:06.505Z,3.20
2022-08-09T17:07:10.041Z,4.00
2022-08-09T17:09:44.855Z,3.40
2022-08-09T17:12:08.226Z,3.15
2022-08-09T17:14:35.256Z,2.83
2022-08-09T17:17:03.795Z,3.13
2022-08-09T17:20:12.614Z,2.95
2022-08-09T17:22:31.563Z,3.22
2022-08-09T17:25:03.454Z,2.38
2022-08-09T17:27:38.107Z,2.40
2022-08-09T17:30:14.107Z,2.20
2022-08-09T17:32:44.248Z,2.45
2022-08-09T17:35:14.158Z,2.15
2022-08-09T17:38:12.111Z,2.10
2022-08-09T17:40:31.896Z,2.53
2022-08-09T17:43:10.647Z,2.40
2022-08-09T17:46:02.891Z,2.75
2022-08-09T17:48:31.348Z,2.60
2022-08-09T17:51:06.579Z,2.75
2022-08-09T17:53:42.978Z,2.80
2022-08-09T17:56:10.878Z,2.30
2022-08-09T17:58:37.732Z,2.30
2022-08-09T18:01:09.710Z,2.53
2022-08-09T18:03:42.506Z,2.47
2022-08-09T18:06:14.955Z,2.83
2022-08-09T18:08:56.535Z,2.30
2022-08-09T18:11:23.790Z,2.70
2022-08-09T18:14:00.530Z,2.90
2022-08-09T18:16:35.109Z,2.72
2022-08-09T18:20:55.556Z,2.50
2022-08-09T18:22:03.894Z,2.47
2022-08-09T18:24:31.152Z,2.28
2022-08-09T18:26:58.172Z,2.60
2022-08-09T18:30:34.828Z,2.67
2022-08-09T18:32:15.044Z,2.70
2022-08-09T18:34:46.089Z,2.63
2022-08-09T18:37:47.339Z,2.63
2022-08-09T18:40:02.709Z,2.78
2022-08-09T18:42:29.741Z,2.63
2022-08-09T18:44:57.083Z,3.20
2022-08-09T18:50:03.055Z,2.88
2022-08-09T18:52:34.985Z,2.70
2022-08-09T18:55:03.573Z,2.60
2022-08-09T18:57:38.603Z,3.05
2022-08-09T19:00:16.743Z,3.13
2022-08-09T19:02:54.286Z,3.30
2022-08-09T19:05:41.342Z,3.15
2022-08-09T19:08:18.310Z,2.83
2022-08-09T19:10:47.814Z,3.08
2022-08-09T19:13:20.919Z,3.00
2022-08-09T19:15:55.770Z,3.65
2022-08-09T19:18:33.036Z,3.42
2022-08-09T19:21:09.127Z,3.10
2022-08-09T19:24:36.060Z,3.00
2022-08-09T19:26:29.411Z,2.90
2022-08-09T19:29:03.624Z,3.00
2022-08-09T19:31:44.973Z,3.13
2022-08-09T19:34:22.281Z,3.10
2022-08-09T19:36:53.104Z,2.90
2022-08-09T19:39:42.835Z,3.30
2022-08-09T19:42:08.598Z,2.67
2022-08-09T19:44:35.571Z,3.00
2022-08-09T19:47:02.887Z,2.90
2022-08-09T19:50:07.564Z,3.00
2022-08-09T19:52:18.620Z,3.10
2022-08-09T19:54:45.991Z,2.90
2022-08-09T19:57:13.126Z,3.17
2022-08-09T19:59:59.986Z,3.33
2022-08-09T20:04:26.308Z,3.05
2022-08-09T20:05:16.507Z,3.60
2022-08-09T20:07:58.524Z,3.00
2022-08-09T20:10:34.804Z,3.20
2022-08-09T20:13:05.006Z,3.40
2022-08-09T20:16:35.773Z,3.15
2022-08-09T20:18:19.664Z,3.00
2022-08-09T20:20:47.240Z,3.10
2022-08-09T20:23:19.361Z,3.05
2022-08-09T20:25:52.370Z,3.05
2022-08-09T20:28:31.973Z,2.60
2022-08-09T20:31:04.711Z,3.35
2022-08-09T20:33:39.043Z,2.95
2022-08-09T20:36:08.986Z,3.08
2022-08-09T20:39:00.297Z,3.30
2022-08-09T20:41:32.026Z,3.42
2022-08-09T20:44:02.856Z,3.30
2022-08-09T20:46:42.031Z,2.90
2022-08-09T20:49:11.355Z,3.15
2022-08-09T20:51:41.695Z,3.05
2022-08-09T20:54:12.564Z,3.00
2022-08-09T20:56:47.189Z,3.30
2022-08-09T20:59:16.767Z,3.45
2022-08-09T21:01:51.621Z,3.15
2022-08-09T21:05:56.446Z,2.97
2022-08-09T21:07:11.291Z,3.25
2022-08-09T21:09:55.595Z,2.90
2022-08-09T21:12:32.942Z,3.30
2022-08-09T21:15:02.682Z,3.22
2022-08-09T21:18:22.018Z,3.45
2022-08-09T21:20:25.353Z,2.90
2022-08-09T21:22:54.495Z,2.95
2022-08-09T21:25:44.251Z,3.20
2022-08-09T21:28:34.744Z,3.42
2022-08-09T21:31:16.162Z,3.42
2022-08-09T21:33:50.821Z,4.00
2022-08-09T21:36:20.487Z,3.35
2022-08-09T21:38:56.751Z,3.78
2022-08-09T21:42:03.930Z,3.03
2022-08-09T21:44:12.602Z,3.22
2022-08-09T21:46:42.466Z,4.00
2022-08-09T21:49:10.101Z,3.20
2022-08-09T21:51:43.733Z,3.40
2022-08-09T21:54:12.133Z,3.63
2022-08-09T21:56:54.199Z,3.25
2022-08-09T21:59:23.456Z,3.78
2022-08-09T22:02:00.542Z,3.63
2022-08-09T22:04:55.562Z,3.05
2022-08-09T22:07:35.534Z,3.30
2022-08-09T22:10:04.442Z,3.15
2022-08-09T22:12:31.981Z,3.03
2022-08-09T22:14:59.094Z,3.65
2022-08-09T22:17:26.019Z,3.33
2022-08-09T22:19:59.234Z,3.55
2022-08-09T22:22:28.913Z,3.15
2022-08-09T22:26:06.491Z,2.90
2022-08-09T22:27:42.689Z,3.38
2022-08-09T22:30:10.543Z,3.22
2022-08-09T22:32:37.857Z,3.08
2022-08-09T22:36:00.680Z,3.30
2022-08-09T22:38:07.045Z,3.17
2022-08-09T22:40:34.538Z,3.15
2022-08-09T22:43:01.429Z,3.25
2022-08-09T22:48:11.731Z,3.60
2022-08-09T22:48:35.321Z,2.80
2022-08-09T22:51:10.405Z,2.70
2022-08-09T22:53:58.631Z,2.47
2022-08-09T22:56:31.330Z,2.50
2022-08-09T22:59:05.896Z,2.40
2022-08-09T23:01:48.898Z,2.47
2022-08-09T23:04:15.757Z,2.75
2022-08-09T23:07:02.499Z,2.40
2022-08-09T23:09:29.671Z,2.20
2022-08-09T23:11:56.473Z,2.38
2022-08-09T23:14:37.204Z,2.28
2022-08-09T23:17:08.538Z,2.85
2022-08-09T23:20:00.787Z,2.03
2022-08-09T23:22:22.409Z,2.58
2022-08-09T23:24:49.292Z,2.47
2022-08-09T23:27:16.452Z,2.38
2022-08-09T23:29:43.388Z,2.22
2022-08-09T23:32:10.318Z,2.05
2022-08-09T23:34:37.660Z,2.58
2022-08-09T23:37:04.931Z,2.03
2022-08-09T23:39:32.472Z,2.42
2022-08-09T23:41:59.625Z,2.50
2022-08-09T23:44:26.412Z,2.10
2022-08-09T23:46:57.661Z,2.40
2022-08-09T23:49:25.679Z,2.38
2022-08-09T23:51:53.367Z,2.28
2022-08-09T23:54:21.335Z,2.10
2022-08-09T23:56:56.043Z,1.83
2022-08-09T23:59:24.430Z,1.80
